sensor_id;sensor_type;location;lat;lon;timestamp;pressure;altitude;pressure_sealevel;temperature;humidity
72798;BME280;61084;55.816;37.036;2023-03-05T00:01:38;96557.88;;;0.17;68.70
72798;BME280;61084;55.816;37.036;2023-03-05T00:04:04;96558.00;;;0.15;68.61
72798;BME280;61084;55.816;37.036;2023-03-05T00:06:32;96559.53;;;0.18;68.43
72798;BME280;61084;55.816;37.036;2023-03-05T00:08:58;96557.69;;;0.20;68.68
72798;BME280;61084;55.816;37.036;2023-03-05T00:11:25;96555.13;;;0.20;68.80
72798;BME280;61084;55.816;37.036;2023-03-05T00:13:54;96558.38;;;0.23;68.45
72798;BME280;61084;55.816;37.036;2023-03-05T00:16:21;96559.94;;;0.26;68.71
72798;BME280;61084;55.816;37.036;2023-03-05T00:18:48;96562.69;;;0.23;68.53
72798;BME280;61084;55.816;37.036;2023-03-05T00:21:26;96561.84;;;0.22;68.45
72798;BME280;61084;55.816;37.036;2023-03-05T00:23:52;96560.28;;;0.20;68.59
72798;BME280;61084;55.816;37.036;2023-03-05T00:26:21;96564.69;;;0.18;68.17
72798;BME280;61084;55.816;37.036;2023-03-05T00:28:47;96556.31;;;0.14;68.34
72798;BME280;61084;55.816;37.036;2023-03-05T00:31:15;96561.72;;;0.10;68.19
72798;BME280;61084;55.816;37.036;2023-03-05T00:33:42;96563.56;;;0.08;68.42
72798;BME280;61084;55.816;37.036;2023-03-05T00:36:08;96555.50;;;-0.02;68.35
72798;BME280;61084;55.816;37.036;2023-03-05T00:38:34;96560.19;;;-0.09;68.54
72798;BME280;61084;55.816;37.036;2023-03-05T00:41:01;96548.22;;;-0.10;68.38
72798;BME280;61084;55.816;37.036;2023-03-05T00:43:27;96558.69;;;-0.13;68.56
72798;BME280;61084;55.816;37.036;2023-03-05T00:45:53;96558.06;;;-0.16;68.78
72798;BME280;61084;55.816;37.036;2023-03-05T00:48:19;96557.22;;;-0.17;68.72
72798;BME280;61084;55.816;37.036;2023-03-05T00:50:46;96553.75;;;-0.16;68.87
72798;BME280;61084;55.816;37.036;2023-03-05T00:53:13;96546.06;;;-0.17;68.48
72798;BME280;61084;55.816;37.036;2023-03-05T00:55:39;96550.41;;;-0.18;68.80
72798;BME280;61084;55.816;37.036;2023-03-05T00:58:05;96553.75;;;-0.16;68.73
72798;BME280;61084;55.816;37.036;2023-03-05T01:00:31;96544.34;;;-0.17;68.65
72798;BME280;61084;55.816;37.036;2023-03-05T01:02:57;96556.31;;;-0.16;68.68
72798;BME280;61084;55.816;37.036;2023-03-05T01:05:22;96551.31;;;-0.19;68.79
72798;BME280;61084;55.816;37.036;2023-03-05T01:07:52;96552.25;;;-0.20;69.06
72798;BME280;61084;55.816;37.036;2023-03-05T01:10:18;96555.63;;;-0.19;68.83
72798;BME280;61084;55.816;37.036;2023-03-05T01:12:44;96556.56;;;-0.20;69.15
72798;BME280;61084;55.816;37.036;2023-03-05T01:15:10;96554.06;;;-0.22;69.22
72798;BME280;61084;55.816;37.036;2023-03-05T01:17:36;96551.41;;;-0.20;69.13
72798;BME280;61084;55.816;37.036;2023-03-05T01:20:03;96550.47;;;-0.19;68.97
72798;BME280;61084;55.816;37.036;2023-03-05T01:22:29;96545.16;;;-0.16;69.35
72798;BME280;61084;55.816;37.036;2023-03-05T01:24:55;96557.97;;;-0.15;69.33
72798;BME280;61084;55.816;37.036;2023-03-05T01:27:22;96554.47;;;-0.14;69.15
72798;BME280;61084;55.816;37.036;2023-03-05T01:29:47;96543.50;;;-0.17;69.49
72798;BME280;61084;55.816;37.036;2023-03-05T01:32:14;96543.44;;;-0.16;69.21
72798;BME280;61084;55.816;37.036;2023-03-05T01:34:40;96555.31;;;-0.13;69.16
72798;BME280;61084;55.816;37.036;2023-03-05T01:37:07;96546.66;;;-0.12;69.27
72798;BME280;61084;55.816;37.036;2023-03-05T01:39:33;96551.66;;;-0.09;69.33
72798;BME280;61084;55.816;37.036;2023-03-05T01:42:01;96540.59;;;-0.11;69.66
72798;BME280;61084;55.816;37.036;2023-03-05T01:44:28;96538.00;;;-0.11;69.22
72798;BME280;61084;55.816;37.036;2023-03-05T01:46:54;96540.59;;;-0.11;68.98
72798;BME280;61084;55.816;37.036;2023-03-05T01:49:24;96544.91;;;-0.12;69.10
72798;BME280;61084;55.816;37.036;2023-03-05T01:52:07;96538.09;;;-0.13;69.31
72798;BME280;61084;55.816;37.036;2023-03-05T01:54:44;96538.75;;;-0.09;69.05
72798;BME280;61084;55.816;37.036;2023-03-05T01:57:33;96538.66;;;-0.08;68.88
72798;BME280;61084;55.816;37.036;2023-03-05T02:00:12;96543.06;;;-0.10;69.01
72798;BME280;61084;55.816;37.036;2023-03-05T02:02:41;96544.81;;;-0.10;69.25
72798;BME280;61084;55.816;37.036;2023-03-05T02:05:15;96537.75;;;-0.07;69.44
72798;BME280;61084;55.816;37.036;2023-03-05T02:07:42;96536.94;;;-0.07;69.15
72798;BME280;61084;55.816;37.036;2023-03-05T02:12:43;96535.34;;;-0.10;69.30
72798;BME280;61084;55.816;37.036;2023-03-05T02:15:29;96536.25;;;-0.11;69.29
72798;BME280;61084;55.816;37.036;2023-03-05T02:17:55;96539.50;;;-0.07;69.09
72798;BME280;61084;55.816;37.036;2023-03-05T02:20:24;96532.03;;;-0.12;69.22
72798;BME280;61084;55.816;37.036;2023-03-05T02:22:50;96536.25;;;-0.11;69.47
72798;BME280;61084;55.816;37.036;2023-03-05T02:25:20;96532.78;;;-0.10;69.05
72798;BME280;61084;55.816;37.036;2023-03-05T02:30:33;96537.91;;;-0.10;69.03
72798;BME280;61084;55.816;37.036;2023-03-05T02:33:00;96532.19;;;-0.15;68.96
72798;BME280;61084;55.816;37.036;2023-03-05T02:35:26;96525.28;;;-0.14;69.09
72798;BME280;61084;55.816;37.036;2023-03-05T02:37:52;96530.28;;;-0.11;69.31
72798;BME280;61084;55.816;37.036;2023-03-05T02:40:18;96528.50;;;-0.11;68.96
72798;BME280;61084;55.816;37.036;2023-03-05T02:42:45;96533.66;;;-0.11;69.05
72798;BME280;61084;55.816;37.036;2023-03-05T02:45:12;96530.19;;;-0.10;69.29
72798;BME280;61084;55.816;37.036;2023-03-05T02:47:38;96526.69;;;-0.09;69.20
72798;BME280;61084;55.816;37.036;2023-03-05T02:50:06;96530.28;;;-0.11;68.98
72798;BME280;61084;55.816;37.036;2023-03-05T02:52:32;96533.88;;;-0.14;69.08
72798;BME280;61084;55.816;37.036;2023-03-05T02:54:59;96526.19;;;-0.15;69.23
72798;BME280;61084;55.816;37.036;2023-03-05T02:57:28;96527.03;;;-0.15;69.29
72798;BME280;61084;55.816;37.036;2023-03-05T02:59:54;96527.38;;;-0.21;69.20
72798;BME280;61084;55.816;37.036;2023-03-05T03:02:20;96528.28;;;-0.22;69.61
72798;BME280;61084;55.816;37.036;2023-03-05T03:04:45;96535.22;;;-0.22;69.77
72798;BME280;61084;55.816;37.036;2023-03-05T03:07:12;96524.91;;;-0.22;69.66
72798;BME280;61084;55.816;37.036;2023-03-05T03:09:38;96530.06;;;-0.22;69.52
72798;BME280;61084;55.816;37.036;2023-03-05T03:12:05;96533.28;;;-0.19;69.38
72798;BME280;61084;55.816;37.036;2023-03-05T03:14:34;96529.59;;;-0.15;69.64
72798;BME280;61084;55.816;37.036;2023-03-05T03:17:05;96529.72;;;-0.16;69.49
72798;BME280;61084;55.816;37.036;2023-03-05T03:19:31;96522.06;;;-0.18;69.65
72798;BME280;61084;55.816;37.036;2023-03-05T03:21:57;96526.28;;;-0.17;69.06
72798;BME280;61084;55.816;37.036;2023-03-05T03:24:23;96522.22;;;-0.21;69.55
72798;BME280;61084;55.816;37.036;2023-03-05T03:26:48;96525.66;;;-0.20;69.47
72798;BME280;61084;55.816;37.036;2023-03-05T03:29:15;96526.56;;;-0.21;69.28
72798;BME280;61084;55.816;37.036;2023-03-05T03:31:43;96522.97;;;-0.19;69.21
72798;BME280;61084;55.816;37.036;2023-03-05T03:34:12;96515.09;;;-0.16;69.41
72798;BME280;61084;55.816;37.036;2023-03-05T03:36:37;96514.50;;;-0.21;69.41
72798;BME280;61084;55.816;37.036;2023-03-05T03:39:03;96515.41;;;-0.22;69.05
72798;BME280;61084;55.816;37.036;2023-03-05T03:41:31;96513.03;;;-0.25;68.90
72798;BME280;61084;55.816;37.036;2023-03-05T03:43:57;96507.88;;;-0.25;69.27
72798;BME280;61084;55.816;37.036;2023-03-05T03:46:22;96510.69;;;-0.29;69.26
72798;BME280;61084;55.816;37.036;2023-03-05T03:48:49;96513.19;;;-0.28;69.04
72798;BME280;61084;55.816;37.036;2023-03-05T03:51:16;96512.44;;;-0.30;69.28
72798;BME280;61084;55.816;37.036;2023-03-05T03:53:41;96512.53;;;-0.31;69.22
72798;BME280;61084;55.816;37.036;2023-03-05T03:56:07;96510.06;;;-0.33;68.61
72798;BME280;61084;55.816;37.036;2023-03-05T03:58:33;96520.53;;;-0.36;68.96
72798;BME280;61084;55.816;37.036;2023-03-05T04:00:59;96524.75;;;-0.35;69.03
72798;BME280;61084;55.816;37.036;2023-03-05T04:03:25;96517.09;;;-0.36;69.05
72798;BME280;61084;55.816;37.036;2023-03-05T04:05:50;96513.53;;;-0.34;68.93
72798;BME280;61084;55.816;37.036;2023-03-05T04:08:16;96524.19;;;-0.40;68.84
72798;BME280;61084;55.816;37.036;2023-03-05T04:10:42;96520.69;;;-0.39;68.77
72798;BME280;61084;55.816;37.036;2023-03-05T04:13:08;96517.19;;;-0.38;69.02
72798;BME280;61084;55.816;37.036;2023-03-05T04:15:34;96520.69;;;-0.39;68.90
72798;BME280;61084;55.816;37.036;2023-03-05T04:18:00;96515.53;;;-0.39;68.68
72798;BME280;61084;55.816;37.036;2023-03-05T04:20:25;96521.41;;;-0.37;68.92
72798;BME280;61084;55.816;37.036;2023-03-05T04:22:51;96519.69;;;-0.36;69.14
72798;BME280;61084;55.816;37.036;2023-03-05T04:25:17;96522.16;;;-0.35;68.74
72798;BME280;61084;55.816;37.036;2023-03-05T04:27:43;96525.78;;;-0.37;69.18
72798;BME280;61084;55.816;37.036;2023-03-05T04:30:11;96540.19;;;-0.35;69.23
72798;BME280;61084;55.816;37.036;2023-03-05T04:32:39;96528.34;;;-0.37;69.09
72798;BME280;61084;55.816;37.036;2023-03-05T04:35:05;96536.06;;;-0.37;69.05
72798;BME280;61084;55.816;37.036;2023-03-05T04:37:31;96542.97;;;-0.38;69.13
72798;BME280;61084;55.816;37.036;2023-03-05T04:39:57;96546.44;;;-0.39;69.00
72798;BME280;61084;55.816;37.036;2023-03-05T04:42:23;96538.66;;;-0.37;69.07
72798;BME280;61084;55.816;37.036;2023-03-05T04:44:50;96538.56;;;-0.36;69.28
72798;BME280;61084;55.816;37.036;2023-03-05T04:47:17;96540.88;;;-0.31;69.12
72798;BME280;61084;55.816;37.036;2023-03-05T04:49:43;96545.19;;;-0.32;68.61
72798;BME280;61084;55.816;37.036;2023-03-05T04:52:11;96537.13;;;-0.41;68.74
72798;BME280;61084;55.816;37.036;2023-03-05T04:54:37;96543.13;;;-0.41;69.04
72798;BME280;61084;55.816;37.036;2023-03-05T04:57:03;96544.78;;;-0.40;69.19
72798;BME280;61084;55.816;37.036;2023-03-05T04:59:29;96546.19;;;-0.34;68.94
72798;BME280;61084;55.816;37.036;2023-03-05T05:01:55;96553.28;;;-0.38;69.12
72798;BME280;61084;55.816;37.036;2023-03-05T05:04:20;96549.75;;;-0.37;69.17
72798;BME280;61084;55.816;37.036;2023-03-05T05:06:46;96552.53;;;-0.40;69.20
72798;BME280;61084;55.816;37.036;2023-03-05T05:09:12;96548.03;;;-0.36;68.91
72798;BME280;61084;55.816;37.036;2023-03-05T05:11:39;96564.16;;;-0.33;69.06
72798;BME280;61084;55.816;37.036;2023-03-05T05:14:05;96557.06;;;-0.29;68.97
72798;BME280;61084;55.816;37.036;2023-03-05T05:16:31;96563.81;;;-0.27;68.87
72798;BME280;61084;55.816;37.036;2023-03-05T05:18:56;96561.16;;;-0.25;68.80
72798;BME280;61084;55.816;37.036;2023-03-05T05:21:22;96560.25;;;-0.24;68.59
72798;BME280;61084;55.816;37.036;2023-03-05T05:23:49;96565.31;;;-0.23;68.72
72798;BME280;61084;55.816;37.036;2023-03-05T05:26:14;96563.38;;;-0.19;68.91
72798;BME280;61084;55.816;37.036;2023-03-05T05:28:42;96564.84;;;-0.15;69.01
72798;BME280;61084;55.816;37.036;2023-03-05T05:31:13;96571.69;;;-0.14;68.65
72798;BME280;61084;55.816;37.036;2023-03-05T05:33:40;96577.50;;;-0.11;68.75
72798;BME280;61084;55.816;37.036;2023-03-05T05:36:08;96571.34;;;-0.08;68.92
72798;BME280;61084;55.816;37.036;2023-03-05T05:38:34;96577.41;;;-0.09;68.78
72798;BME280;61084;55.816;37.036;2023-03-05T05:41:04;96571.16;;;-0.05;68.79
72798;BME280;61084;55.816;37.036;2023-03-05T05:43:30;96576.91;;;0.00;68.87
72798;BME280;61084;55.816;37.036;2023-03-05T05:46:00;96576.63;;;0.05;68.97
72798;BME280;61084;55.816;37.036;2023-03-05T05:48:28;96578.03;;;0.10;68.85
72798;BME280;61084;55.816;37.036;2023-03-05T05:50:54;96585.50;;;0.15;68.57
72798;BME280;61084;55.816;37.036;2023-03-05T05:53:21;96588.63;;;0.20;68.65
72798;BME280;61084;55.816;37.036;2023-03-05T05:55:47;96587.56;;;0.24;68.74
72798;BME280;61084;55.816;37.036;2023-03-05T05:58:12;96583.56;;;0.18;68.57
72798;BME280;61084;55.816;37.036;2023-03-05T06:00:38;96585.91;;;0.23;68.34
72798;BME280;61084;55.816;37.036;2023-03-05T06:03:04;96597.47;;;0.16;68.91
72798;BME280;61084;55.816;37.036;2023-03-05T06:05:30;96591.31;;;0.18;68.71
72798;BME280;61084;55.816;37.036;2023-03-05T06:07:55;96602.22;;;0.23;68.44
72798;BME280;61084;55.816;37.036;2023-03-05T06:10:21;96601.47;;;0.21;68.26
72798;BME280;61084;55.816;37.036;2023-03-05T06:12:47;96604.69;;;0.25;68.48
72798;BME280;61084;55.816;37.036;2023-03-05T06:15:12;96602.84;;;0.27;68.47
72798;BME280;61084;55.816;37.036;2023-03-05T06:17:38;96606.16;;;0.29;68.74
72798;BME280;61084;55.816;37.036;2023-03-05T06:20:04;96616.44;;;0.30;68.56
72798;BME280;61084;55.816;37.036;2023-03-05T06:22:35;96616.44;;;0.30;68.41
72798;BME280;61084;55.816;37.036;2023-03-05T06:25:01;96612.44;;;0.25;68.33
72798;BME280;61084;55.816;37.036;2023-03-05T06:27:28;96630.47;;;0.25;68.70
72798;BME280;61084;55.816;37.036;2023-03-05T06:29:54;96618.44;;;0.25;68.67
72798;BME280;61084;55.816;37.036;2023-03-05T06:32:22;96615.69;;;0.28;68.78
72798;BME280;61084;55.816;37.036;2023-03-05T06:34:48;96627.47;;;0.32;68.71
72798;BME280;61084;55.816;37.036;2023-03-05T06:37:14;96620.38;;;0.36;68.59
72798;BME280;61084;55.816;37.036;2023-03-05T06:39:40;96640.19;;;0.35;68.62
72798;BME280;61084;55.816;37.036;2023-03-05T06:42:06;96633.03;;;0.40;68.96
72798;BME280;61084;55.816;37.036;2023-03-05T06:44:32;96637.28;;;0.41;68.47
72798;BME280;61084;55.816;37.036;2023-03-05T06:46:57;96639.50;;;0.47;68.56
72798;BME280;61084;55.816;37.036;2023-03-05T06:49:23;96642.38;;;0.57;68.86
72798;BME280;61084;55.816;37.036;2023-03-05T06:51:49;96644.53;;;0.64;68.86
72798;BME280;61084;55.816;37.036;2023-03-05T06:54:15;96654.47;;;0.70;68.46
72798;BME280;61084;55.816;37.036;2023-03-05T06:56:44;96646.56;;;0.73;68.57
72798;BME280;61084;55.816;37.036;2023-03-05T06:59:11;96659.28;;;0.76;68.89
72798;BME280;61084;55.816;37.036;2023-03-05T07:01:38;96661.31;;;0.71;68.51
72798;BME280;61084;55.816;37.036;2023-03-05T07:04:04;96662.69;;;0.63;68.35
72798;BME280;61084;55.816;37.036;2023-03-05T07:06:33;96666.91;;;0.64;68.80
72798;BME280;61084;55.816;37.036;2023-03-05T07:08:59;96668.38;;;0.68;68.75
72798;BME280;61084;55.816;37.036;2023-03-05T07:11:26;96663.91;;;0.71;68.82
72798;BME280;61084;55.816;37.036;2023-03-05T07:13:52;96674.22;;;0.71;68.58
72798;BME280;61084;55.816;37.036;2023-03-05T07:16:21;96676.72;;;0.73;68.57
72798;BME280;61084;55.816;37.036;2023-03-05T07:18:47;96684.56;;;0.71;68.83
72798;BME280;61084;55.816;37.036;2023-03-05T07:21:16;96684.63;;;0.70;69.07
72798;BME280;61084;55.816;37.036;2023-03-05T07:23:42;96691.72;;;0.66;68.46
72798;BME280;61084;55.816;37.036;2023-03-05T07:26:10;96697.78;;;0.65;68.50
72798;BME280;61084;55.816;37.036;2023-03-05T07:28:36;96693.66;;;0.63;69.02
72798;BME280;61084;55.816;37.036;2023-03-05T07:31:04;96698.53;;;0.67;68.47
72798;BME280;61084;55.816;37.036;2023-03-05T07:33:31;96707.19;;;0.66;68.65
72798;BME280;61084;55.816;37.036;2023-03-05T07:35:57;96705.25;;;0.70;68.43
72798;BME280;61084;55.816;37.036;2023-03-05T07:38:22;96711.75;;;0.77;68.51
72798;BME280;61084;55.816;37.036;2023-03-05T07:40:49;96720.31;;;0.77;68.56
72798;BME280;61084;55.816;37.036;2023-03-05T07:43:15;96722.44;;;0.85;68.98
72798;BME280;61084;55.816;37.036;2023-03-05T07:45:43;96724.41;;;0.82;68.24
72798;BME280;61084;55.816;37.036;2023-03-05T07:48:13;96724.28;;;0.83;68.37
72798;BME280;61084;55.816;37.036;2023-03-05T07:50:39;96732.72;;;0.87;68.09
72798;BME280;61084;55.816;37.036;2023-03-05T07:53:06;96736.28;;;0.84;68.31
72798;BME280;61084;55.816;37.036;2023-03-05T07:55:31;96737.69;;;0.90;68.25
72798;BME280;61084;55.816;37.036;2023-03-05T07:57:57;96738.69;;;0.87;68.05
72798;BME280;61084;55.816;37.036;2023-03-05T08:00:23;96747.38;;;0.86;68.03
72798;BME280;61084;55.816;37.036;2023-03-05T08:02:49;96756.38;;;0.79;68.51
72798;BME280;61084;55.816;37.036;2023-03-05T08:05:15;96761.78;;;0.74;68.23
72798;BME280;61084;55.816;37.036;2023-03-05T08:07:41;96763.63;;;0.72;68.06
72798;BME280;61084;55.816;37.036;2023-03-05T08:10:07;96771.22;;;0.75;68.35
72798;BME280;61084;55.816;37.036;2023-03-05T08:12:34;96771.22;;;0.75;67.85
72798;BME280;61084;55.816;37.036;2023-03-05T08:14:59;96774.16;;;0.69;68.05
72798;BME280;61084;55.816;37.036;2023-03-05T08:17:25;96782.28;;;0.77;68.16
72798;BME280;61084;55.816;37.036;2023-03-05T08:19:51;96792.94;;;0.71;67.93
72798;BME280;61084;55.816;37.036;2023-03-05T08:22:19;96794.84;;;0.68;68.09
72798;BME280;61084;55.816;37.036;2023-03-05T08:24:45;96796.34;;;0.72;67.97
72798;BME280;61084;55.816;37.036;2023-03-05T08:27:10;96809.69;;;0.80;67.89
72798;BME280;61084;55.816;37.036;2023-03-05T08:29:36;96803.44;;;0.68;67.54
72798;BME280;61084;55.816;37.036;2023-03-05T08:32:02;96816.69;;;0.62;67.76
72798;BME280;61084;55.816;37.036;2023-03-05T08:34:28;96823.34;;;0.66;68.20
72798;BME280;61084;55.816;37.036;2023-03-05T08:36:54;96820.41;;;0.72;68.20
72798;BME280;61084;55.816;37.036;2023-03-05T08:39:20;96830.22;;;0.82;68.01
72798;BME280;61084;55.816;37.036;2023-03-05T08:41:46;96830.31;;;0.80;67.98
72798;BME280;61084;55.816;37.036;2023-03-05T08:44:11;96836.97;;;0.84;68.01
72798;BME280;61084;55.816;37.036;2023-03-05T08:46:38;96841.22;;;0.85;68.07
72798;BME280;61084;55.816;37.036;2023-03-05T08:49:05;96852.22;;;0.89;67.68
72798;BME280;61084;55.816;37.036;2023-03-05T08:51:32;96851.22;;;0.91;67.79
72798;BME280;61084;55.816;37.036;2023-03-05T08:53:58;96856.19;;;0.94;67.77
72798;BME280;61084;55.816;37.036;2023-03-05T08:56:25;96862.03;;;0.98;67.66
72798;BME280;61084;55.816;37.036;2023-03-05T08:58:52;96873.13;;;1.00;67.50
72798;BME280;61084;55.816;37.036;2023-03-05T09:01:18;96877.69;;;0.95;67.71
72798;BME280;61084;55.816;37.036;2023-03-05T09:03:44;96873.91;;;1.00;67.56
72798;BME280;61084;55.816;37.036;2023-03-05T09:06:11;96878.03;;;1.04;67.52
72798;BME280;61084;55.816;37.036;2023-03-05T09:08:37;96878.94;;;1.03;67.59
72798;BME280;61084;55.816;37.036;2023-03-05T09:11:05;96885.19;;;0.99;67.12
72798;BME280;61084;55.816;37.036;2023-03-05T09:13:32;96891.34;;;0.97;67.36
72798;BME280;61084;55.816;37.036;2023-03-05T09:16:00;96889.00;;;0.92;67.49
72798;BME280;61084;55.816;37.036;2023-03-05T09:18:27;96894.50;;;1.02;67.14
72798;BME280;61084;55.816;37.036;2023-03-05T09:20:53;96902.41;;;0.99;67.43
72798;BME280;61084;55.816;37.036;2023-03-05T09:23:20;96897.94;;;0.87;67.11
72798;BME280;61084;55.816;37.036;2023-03-05T09:25:46;96902.50;;;0.82;67.14
72798;BME280;61084;55.816;37.036;2023-03-05T09:28:11;96908.56;;;0.81;67.24
72798;BME280;61084;55.816;37.036;2023-03-05T09:30:37;96911.16;;;0.81;67.57
72798;BME280;61084;55.816;37.036;2023-03-05T09:33:04;96910.41;;;0.78;67.34
72798;BME280;61084;55.816;37.036;2023-03-05T09:35:34;96919.75;;;0.81;67.28
72798;BME280;61084;55.816;37.036;2023-03-05T09:38:01;96916.31;;;0.81;66.74
72798;BME280;61084;55.816;37.036;2023-03-05T09:40:36;96924.16;;;0.79;67.25
72798;BME280;61084;55.816;37.036;2023-03-05T09:46:14;96934.59;;;0.93;67.22
72798;BME280;61084;55.816;37.036;2023-03-05T09:49:01;96944.09;;;1.08;67.69
72798;BME280;61084;55.816;37.036;2023-03-05T09:51:35;96943.75;;;1.14;67.37
72798;BME280;61084;55.816;37.036;2023-03-05T09:56:41;96950.41;;;1.18;67.17
72798;BME280;61084;55.816;37.036;2023-03-05T10:02:00;96955.72;;;1.31;67.00
72798;BME280;61084;55.816;37.036;2023-03-05T10:04:41;96957.00;;;1.24;66.88
72798;BME280;61084;55.816;37.036;2023-03-05T10:07:44;96962.91;;;1.26;66.75
72798;BME280;61084;55.816;37.036;2023-03-05T10:12:51;96968.38;;;1.20;66.74
72798;BME280;61084;55.816;37.036;2023-03-05T10:18:27;96990.88;;;1.18;66.74
72798;BME280;61084;55.816;37.036;2023-03-05T10:34:11;97015.63;;;0.91;67.20
72798;BME280;61084;55.816;37.036;2023-03-05T10:39:39;97015.81;;;1.03;66.95
72798;BME280;61084;55.816;37.036;2023-03-05T10:42:15;97018.22;;;1.06;66.96
72798;BME280;61084;55.816;37.036;2023-03-05T10:44:49;97023.91;;;1.13;66.64
72798;BME280;61084;55.816;37.036;2023-03-05T10:49:50;97031.13;;;1.22;66.76
72798;BME280;61084;55.816;37.036;2023-03-05T10:52:20;97038.94;;;1.05;66.32
72798;BME280;61084;55.816;37.036;2023-03-05T10:54:48;97044.22;;;1.03;66.25
72798;BME280;61084;55.816;37.036;2023-03-05T10:57:18;97048.88;;;0.97;66.52
72798;BME280;61084;55.816;37.036;2023-03-05T11:02:26;97050.53;;;0.98;66.77
72798;BME280;61084;55.816;37.036;2023-03-05T11:04:52;97051.06;;;1.04;66.40
72798;BME280;61084;55.816;37.036;2023-03-05T11:12:37;97064.59;;;0.92;65.90
72798;BME280;61084;55.816;37.036;2023-03-05T11:17:38;97072.13;;;1.12;65.86
72798;BME280;61084;55.816;37.036;2023-03-05T11:20:32;97085.72;;;1.16;66.12
72798;BME280;61084;55.816;37.036;2023-03-05T11:23:01;97085.72;;;1.16;66.10
72798;BME280;61084;55.816;37.036;2023-03-05T11:25:28;97091.56;;;1.19;66.03
72798;BME280;61084;55.816;37.036;2023-03-05T11:27:56;97104.53;;;1.18;66.06
72798;BME280;61084;55.816;37.036;2023-03-05T11:30:28;97110.47;;;1.20;66.27
72798;BME280;61084;55.816;37.036;2023-03-05T11:33:24;97104.78;;;1.13;65.82
72798;BME280;61084;55.816;37.036;2023-03-05T11:35:51;97115.88;;;1.15;65.60
72798;BME280;61084;55.816;37.036;2023-03-05T11:38:24;97119.25;;;1.17;65.82
72798;BME280;61084;55.816;37.036;2023-03-05T11:40:52;97127.38;;;1.10;65.23
72798;BME280;61084;55.816;37.036;2023-03-05T11:43:21;97132.44;;;1.11;65.24
72798;BME280;61084;55.816;37.036;2023-03-05T11:45:51;97128.78;;;1.15;65.61
72798;BME280;61084;55.816;37.036;2023-03-05T11:48:27;97138.13;;;1.18;65.37
72798;BME280;61084;55.816;37.036;2023-03-05T11:50:57;97146.47;;;1.23;64.71
72798;BME280;61084;55.816;37.036;2023-03-05T11:53:27;97147.91;;;1.28;65.14
72798;BME280;61084;55.816;37.036;2023-03-05T12:01:16;97164.09;;;1.32;65.07
72798;BME280;61084;55.816;37.036;2023-03-05T12:03:42;97165.69;;;1.34;64.75
72798;BME280;61084;55.816;37.036;2023-03-05T12:12:16;97185.31;;;1.21;64.66
72798;BME280;61084;55.816;37.036;2023-03-05T12:17:27;97193.75;;;1.25;64.69
72798;BME280;61084;55.816;37.036;2023-03-05T12:20:17;97192.75;;;1.27;64.91
72798;BME280;61084;55.816;37.036;2023-03-05T12:22:48;97205.06;;;1.22;63.72
72798;BME280;61084;55.816;37.036;2023-03-05T12:25:50;97208.06;;;1.15;64.09
72798;BME280;61084;55.816;37.036;2023-03-05T12:30:59;97209.13;;;1.11;64.40
72798;BME280;61084;55.816;37.036;2023-03-05T12:33:30;97214.03;;;1.15;64.21
72798;BME280;61084;55.816;37.036;2023-03-05T12:38:45;97231.91;;;1.03;64.28
72798;BME280;61084;55.816;37.036;2023-03-05T12:51:52;97241.69;;;0.79;64.43
72798;BME280;61084;55.816;37.036;2023-03-05T12:54:29;97245.88;;;0.82;64.09
72798;BME280;61084;55.816;37.036;2023-03-05T12:57:01;97253.97;;;0.74;63.88
72798;BME280;61084;55.816;37.036;2023-03-05T12:59:40;97256.28;;;0.63;64.10
72798;BME280;61084;55.816;37.036;2023-03-05T13:02:21;97253.53;;;0.66;64.27
72798;BME280;61084;55.816;37.036;2023-03-05T13:04:48;97267.94;;;0.70;64.53
72798;BME280;61084;55.816;37.036;2023-03-05T13:07:17;97264.16;;;0.77;64.45
72798;BME280;61084;55.816;37.036;2023-03-05T13:09:54;97259.69;;;0.81;64.32
72798;BME280;61084;55.816;37.036;2023-03-05T13:12:21;97265.25;;;0.90;64.43
72798;BME280;61084;55.816;37.036;2023-03-05T13:15:05;97264.03;;;0.97;64.49
72798;BME280;61084;55.816;37.036;2023-03-05T13:17:52;97272.84;;;0.93;64.61
72798;BME280;61084;55.816;37.036;2023-03-05T13:20:39;97278.16;;;0.90;64.39
72798;BME280;61084;55.816;37.036;2023-03-05T13:25:39;97286.56;;;0.76;64.54
72798;BME280;61084;55.816;37.036;2023-03-05T13:28:16;97296.06;;;0.76;64.21
72798;BME280;61084;55.816;37.036;2023-03-05T13:30:53;97296.28;;;0.71;64.50
72798;BME280;61084;55.816;37.036;2023-03-05T13:33:30;97304.03;;;0.71;64.36
72798;BME280;61084;55.816;37.036;2023-03-05T13:35:57;97307.16;;;0.78;64.67
72798;BME280;61084;55.816;37.036;2023-03-05T13:38:27;97309.34;;;0.86;64.84
72798;BME280;61084;55.816;37.036;2023-03-05T13:41:23;97312.47;;;0.92;64.39
72798;BME280;61084;55.816;37.036;2023-03-05T13:43:55;97312.72;;;1.05;65.07
72798;BME280;61084;55.816;37.036;2023-03-05T13:46:23;97314.94;;;1.12;64.89
72798;BME280;61084;55.816;37.036;2023-03-05T13:48:49;97320.88;;;1.14;64.54
72798;BME280;61084;55.816;37.036;2023-03-05T13:51:15;97323.00;;;1.06;64.92
72798;BME280;61084;55.816;37.036;2023-03-05T13:53:42;97319.44;;;1.09;64.46
72798;BME280;61084;55.816;37.036;2023-03-05T13:56:13;97330.75;;;1.06;63.87
72798;BME280;61084;55.816;37.036;2023-03-05T13:58:50;97329.28;;;1.01;63.74
72798;BME280;61084;55.816;37.036;2023-03-05T14:09:58;97343.84;;;0.85;64.17
72798;BME280;61084;55.816;37.036;2023-03-05T14:12:29;97340.84;;;0.75;63.82
72798;BME280;61084;55.816;37.036;2023-03-05T14:14:58;97349.72;;;0.69;63.68
72798;BME280;61084;55.816;37.036;2023-03-05T14:20:15;97348.81;;;0.70;64.05
72798;BME280;61084;55.816;37.036;2023-03-05T14:22:45;97352.06;;;0.74;64.40
72798;BME280;61084;55.816;37.036;2023-03-05T14:30:48;97351.38;;;0.89;64.42
72798;BME280;61084;55.816;37.036;2023-03-05T14:33:23;97356.28;;;0.94;64.22
72798;BME280;61084;55.816;37.036;2023-03-05T14:35:51;97353.66;;;0.95;63.88
72798;BME280;61084;55.816;37.036;2023-03-05T14:38:23;97362.38;;;0.93;63.83
72798;BME280;61084;55.816;37.036;2023-03-05T14:40:49;97362.47;;;0.91;64.09